sensor_id;sensor_type;location;lat;lon;timestamp;pressure;altitude;pressure_sealevel;temperature;humidity
6349;BME280;3207;42.648;23.406;2023-03-04T00:01:22;100292.69;;;5.84;nan
6349;BME280;3207;42.648;23.406;2023-03-04T00:03:48;100291.84;;;5.83;nan
6349;BME280;3207;42.648;23.406;2023-03-04T00:06:15;100304.06;;;5.81;nan
6349;BME280;3207;42.648;23.406;2023-03-04T00:08:42;100289.50;;;5.79;nan
6349;BME280;3207;42.648;23.406;2023-03-04T00:11:09;100291.31;;;5.77;nan
6349;BME280;3207;42.648;23.406;2023-03-04T00:13:35;100290.47;;;5.76;nan
6349;BME280;3207;42.648;23.406;2023-03-04T00:16:04;100286.50;;;5.69;nan
6349;BME280;3207;42.648;23.406;2023-03-04T00:18:31;100297.66;;;5.71;nan
6349;BME280;3207;42.648;23.406;2023-03-04T00:20:58;100301.16;;;5.70;nan
6349;BME280;3207;42.648;23.406;2023-03-04T00:23:25;100299.59;;;5.66;nan
6349;BME280;3207;42.648;23.406;2023-03-04T00:25:51;100304.94;;;5.63;nan
6349;BME280;3207;42.648;23.406;2023-03-04T00:28:18;100301.59;;;5.61;nan
6349;BME280;3207;42.648;23.406;2023-03-04T00:30:45;100301.88;;;5.55;nan
6349;BME280;3207;42.648;23.406;2023-03-04T00:33:13;100309.50;;;5.58;nan
6349;BME280;3207;42.648;23.406;2023-03-04T00:35:40;100304.53;;;5.53;nan
6349;BME280;3207;42.648;23.406;2023-03-04T00:38:07;100279.69;;;5.31;nan
6349;BME280;3207;42.648;23.406;2023-03-04T00:40:34;100287.31;;;5.34;nan
6349;BME280;3207;42.648;23.406;2023-03-04T00:43:01;100304.13;;;5.44;nan
6349;BME280;3207;42.648;23.406;2023-03-04T00:45:28;100294.66;;;5.43;nan
6349;BME280;3207;42.648;23.406;2023-03-04T00:47:55;100300.97;;;5.37;nan
6349;BME280;3207;42.648;23.406;2023-03-04T00:50:23;100295.47;;;5.26;nan
6349;BME280;3207;42.648;23.406;2023-03-04T00:52:50;100294.56;;;5.27;nan
6349;BME280;3207;42.648;23.406;2023-03-04T00:55:17;100288.19;;;5.15;nan
6349;BME280;3207;42.648;23.406;2023-03-04T00:57:43;100290.00;;;5.13;nan
6349;BME280;3207;42.648;23.406;2023-03-04T01:00:11;100295.31;;;5.10;nan
6349;BME280;3207;42.648;23.406;2023-03-04T01:02:38;100291.97;;;5.08;nan
6349;BME280;3207;42.648;23.406;2023-03-04T01:05:06;100289.09;;;4.96;nan
6349;BME280;3207;42.648;23.406;2023-03-04T01:07:34;100283.91;;;4.96;nan
6349;BME280;3207;42.648;23.406;2023-03-04T01:10:01;100228.50;;;4.61;nan
6349;BME280;3207;42.648;23.406;2023-03-04T01:12:28;100278.56;;;4.80;nan
6349;BME280;3207;42.648;23.406;2023-03-04T01:14:55;100279.47;;;4.79;nan
6349;BME280;3207;42.648;23.406;2023-03-04T01:17:22;100278.84;;;4.74;nan
6349;BME280;3207;42.648;23.406;2023-03-04T01:19:48;100255.06;;;4.66;nan
6349;BME280;3207;42.648;23.406;2023-03-04T01:22:15;100269.28;;;4.76;nan
6349;BME280;3207;42.648;23.406;2023-03-04T01:24:44;100263.63;;;4.66;nan
6349;BME280;3207;42.648;23.406;2023-03-04T01:27:11;100264.34;;;4.70;nan
6349;BME280;3207;42.648;23.406;2023-03-04T01:29:38;100263.38;;;4.72;nan
6349;BME280;3207;42.648;23.406;2023-03-04T01:32:05;100258.13;;;4.74;nan
6349;BME280;3207;42.648;23.406;2023-03-04T01:34:32;100260.72;;;4.74;nan
6349;BME280;3207;42.648;23.406;2023-03-04T01:36:59;100258.97;;;4.74;nan
6349;BME280;3207;42.648;23.406;2023-03-04T01:39:26;100257.22;;;4.75;nan
6349;BME280;3207;42.648;23.406;2023-03-04T01:41:54;100255.53;;;4.74;nan
6349;BME280;3207;42.648;23.406;2023-03-04T01:44:21;100254.81;;;4.70;nan
6349;BME280;3207;42.648;23.406;2023-03-04T01:46:50;100254.00;;;4.70;nan
6349;BME280;3207;42.648;23.406;2023-03-04T01:49:18;100252.31;;;4.69;nan
6349;BME280;3207;42.648;23.406;2023-03-04T01:51:48;100248.19;;;4.65;nan
6349;BME280;3207;42.648;23.406;2023-03-04T01:54:17;100235.25;;;4.65;nan
6349;BME280;3207;42.648;23.406;2023-03-04T01:56:46;100238.53;;;4.68;nan
6349;BME280;3207;42.648;23.406;2023-03-04T01:59:17;100238.44;;;4.70;nan
6349;BME280;3207;42.648;23.406;2023-03-04T02:01:46;100235.09;;;4.68;nan
6349;BME280;3207;42.648;23.406;2023-03-04T02:04:15;100234.41;;;4.64;nan
6349;BME280;3207;42.648;23.406;2023-03-04T02:06:42;100240.31;;;4.66;nan
6349;BME280;3207;42.648;23.406;2023-03-04T02:09:10;100213.28;;;4.55;nan
6349;BME280;3207;42.648;23.406;2023-03-04T02:11:38;100237.69;;;4.68;nan
6349;BME280;3207;42.648;23.406;2023-03-04T02:14:05;100225.03;;;4.62;nan
6349;BME280;3207;42.648;23.406;2023-03-04T02:16:34;100235.50;;;4.59;nan
6349;BME280;3207;42.648;23.406;2023-03-04T02:19:01;100237.31;;;4.57;nan
6349;BME280;3207;42.648;23.406;2023-03-04T02:21:29;100233.03;;;4.56;nan
6349;BME280;3207;42.648;23.406;2023-03-04T02:24:03;100234.72;;;4.57;nan
6349;BME280;3207;42.648;23.406;2023-03-04T02:26:34;100228.81;;;4.55;nan
6349;BME280;3207;42.648;23.406;2023-03-04T02:29:02;100219.41;;;4.52;nan
6349;BME280;3207;42.648;23.406;2023-03-04T02:31:31;100220.25;;;4.53;nan
6349;BME280;3207;42.648;23.406;2023-03-04T02:34:00;100221.78;;;4.57;nan
6349;BME280;3207;42.648;23.406;2023-03-04T02:36:28;100220.25;;;4.53;nan
6349;BME280;3207;42.648;23.406;2023-03-04T02:39:00;100215.09;;;4.53;nan
6349;BME280;3207;42.648;23.406;2023-03-04T02:41:28;100220.09;;;4.56;nan
6349;BME280;3207;42.648;23.406;2023-03-04T02:43:56;100220.09;;;4.56;nan
6349;BME280;3207;42.648;23.406;2023-03-04T02:46:23;100220.09;;;4.56;nan
6349;BME280;3207;42.648;23.406;2023-03-04T02:48:51;100223.69;;;4.53;nan
6349;BME280;3207;42.648;23.406;2023-03-04T02:51:18;100227.22;;;4.32;nan
6349;BME280;3207;42.648;23.406;2023-03-04T02:53:45;100219.25;;;4.16;nan
6349;BME280;3207;42.648;23.406;2023-03-04T02:56:12;100230.66;;;4.12;nan
6349;BME280;3207;42.648;23.406;2023-03-04T02:58:39;100231.56;;;3.91;nan
6349;BME280;3207;42.648;23.406;2023-03-04T03:01:07;100233.88;;;3.77;nan
6349;BME280;3207;42.648;23.406;2023-03-04T03:03:34;100225.22;;;3.78;nan
6349;BME280;3207;42.648;23.406;2023-03-04T03:06:01;100205.03;;;3.65;nan
6349;BME280;3207;42.648;23.406;2023-03-04T03:08:28;100229.72;;;3.73;nan
6349;BME280;3207;42.648;23.406;2023-03-04T03:10:55;100235.84;;;3.06;nan
6349;BME280;3207;42.648;23.406;2023-03-04T03:13:21;100227.59;;;3.40;nan
6349;BME280;3207;42.648;23.406;2023-03-04T03:15:49;100233.91;;;3.55;nan
6349;BME280;3207;42.648;23.406;2023-03-04T03:18:17;100233.25;;;3.50;nan
6349;BME280;3207;42.648;23.406;2023-03-04T03:20:44;100230.53;;;3.53;nan
6349;BME280;3207;42.648;23.406;2023-03-04T03:23:11;100202.06;;;3.33;nan
6349;BME280;3207;42.648;23.406;2023-03-04T03:25:38;100231.25;;;3.56;nan
6349;BME280;3207;42.648;23.406;2023-03-04T03:28:05;100237.22;;;3.58;nan
6349;BME280;3207;42.648;23.406;2023-03-04T03:30:32;100204.81;;;3.50;nan
6349;BME280;3207;42.648;23.406;2023-03-04T03:32:58;100236.06;;;3.65;nan
6349;BME280;3207;42.648;23.406;2023-03-04T03:35:27;100229.88;;;3.70;nan
6349;BME280;3207;42.648;23.406;2023-03-04T03:37:53;100234.91;;;3.73;nan
6349;BME280;3207;42.648;23.406;2023-03-04T03:40:20;100229.59;;;3.76;nan
6349;BME280;3207;42.648;23.406;2023-03-04T03:42:47;100234.19;;;3.69;nan
6349;BME280;3207;42.648;23.406;2023-03-04T03:45:14;100236.56;;;3.74;nan
6349;BME280;3207;42.648;23.406;2023-03-04T03:47:40;100235.69;;;3.75;nan
6349;BME280;3207;42.648;23.406;2023-03-04T03:50:08;100226.91;;;3.79;nan
6349;BME280;3207;42.648;23.406;2023-03-04T03:52:36;100239.56;;;3.85;nan
6349;BME280;3207;42.648;23.406;2023-03-04T03:55:04;100238.59;;;3.87;nan
6349;BME280;3207;42.648;23.406;2023-03-04T03:57:31;100233.25;;;3.92;nan
6349;BME280;3207;42.648;23.406;2023-03-04T03:59:58;100229.84;;;3.91;nan
6349;BME280;3207;42.648;23.406;2023-03-04T04:02:24;100232.88;;;4.01;nan
6349;BME280;3207;42.648;23.406;2023-03-04T04:04:51;100226.53;;;3.88;nan
6349;BME280;3207;42.648;23.406;2023-03-04T04:07:18;100225.09;;;3.81;nan
6349;BME280;3207;42.648;23.406;2023-03-04T04:09:46;100235.06;;;3.90;nan
6349;BME280;3207;42.648;23.406;2023-03-04T04:12:14;100237.59;;;3.91;nan
6349;BME280;3207;42.648;23.406;2023-03-04T04:14:42;100232.31;;;3.93;nan
6349;BME280;3207;42.648;23.406;2023-03-04T04:17:09;100212.19;;;3.81;nan
6349;BME280;3207;42.648;23.406;2023-03-04T04:19:36;100235.06;;;3.90;nan
6349;BME280;3207;42.648;23.406;2023-03-04T04:22:05;100231.13;;;3.81;nan
6349;BME280;3207;42.648;23.406;2023-03-04T04:24:32;100239.00;;;3.78;nan
6349;BME280;3207;42.648;23.406;2023-03-04T04:27:00;100228.25;;;3.67;nan
6349;BME280;3207;42.648;23.406;2023-03-04T04:29:28;100236.47;;;3.77;nan
6349;BME280;3207;42.648;23.406;2023-03-04T04:31:55;100236.88;;;3.88;nan
6349;BME280;3207;42.648;23.406;2023-03-04T04:34:22;100238.28;;;3.95;nan
6349;BME280;3207;42.648;23.406;2023-03-04T04:36:49;100239.00;;;3.98;nan
6349;BME280;3207;42.648;23.406;2023-03-04T04:39:16;100235.56;;;3.98;nan
6349;BME280;3207;42.648;23.406;2023-03-04T04:41:44;100233.00;;;3.98;nan
6349;BME280;3207;42.648;23.406;2023-03-04T04:44:13;100231.31;;;3.97;nan
6349;BME280;3207;42.648;23.406;2023-03-04T04:46:40;100224.44;;;3.96;nan
6349;BME280;3207;42.648;23.406;2023-03-04T04:49:08;100228.66;;;3.98;nan
6349;BME280;3207;42.648;23.406;2023-03-04T04:51:36;100225.16;;;3.99;nan
6349;BME280;3207;42.648;23.406;2023-03-04T04:54:04;100235.75;;;3.93;nan
6349;BME280;3207;42.648;23.406;2023-03-04T04:56:31;100228.31;;;3.86;nan
6349;BME280;3207;42.648;23.406;2023-03-04T04:59:01;100220.16;;;3.75;nan
6349;BME280;3207;42.648;23.406;2023-03-04T05:01:29;100229.66;;;3.74;nan
6349;BME280;3207;42.648;23.406;2023-03-04T05:03:56;100218.25;;;3.80;nan
6349;BME280;3207;42.648;23.406;2023-03-04T05:06:24;100230.13;;;3.84;nan
6349;BME280;3207;42.648;23.406;2023-03-04T05:08:51;100224.06;;;3.85;nan
6349;BME280;3207;42.648;23.406;2023-03-04T05:11:18;100228.09;;;3.92;nan
6349;BME280;3207;42.648;23.406;2023-03-04T05:13:46;100230.00;;;3.87;nan
6349;BME280;3207;42.648;23.406;2023-03-04T05:16:13;100235.06;;;3.90;nan
6349;BME280;3207;42.648;23.406;2023-03-04T05:18:41;100233.09;;;3.95;nan
6349;BME280;3207;42.648;23.406;2023-03-04T05:21:08;100187.84;;;3.64;nan
6349;BME280;3207;42.648;23.406;2023-03-04T05:23:37;100227.38;;;3.88;nan
6349;BME280;3207;42.648;23.406;2023-03-04T05:26:05;100221.97;;;3.93;nan
6349;BME280;3207;42.648;23.406;2023-03-04T05:28:32;100221.00;;;3.75;nan
6349;BME280;3207;42.648;23.406;2023-03-04T05:30:59;100227.41;;;3.87;nan
6349;BME280;3207;42.648;23.406;2023-03-04T05:33:26;100229.63;;;3.96;nan
6349;BME280;3207;42.648;23.406;2023-03-04T05:35:54;100222.91;;;3.92;nan
6349;BME280;3207;42.648;23.406;2023-03-04T05:38:21;100221.06;;;3.94;nan
6349;BME280;3207;42.648;23.406;2023-03-04T05:40:48;100233.00;;;3.98;nan
6349;BME280;3207;42.648;23.406;2023-03-04T05:43:15;100182.44;;;3.71;nan
6349;BME280;3207;42.648;23.406;2023-03-04T05:45:42;100225.56;;;3.90;nan
6349;BME280;3207;42.648;23.406;2023-03-04T05:48:09;100225.50;;;3.92;nan
6349;BME280;3207;42.648;23.406;2023-03-04T05:50:36;100224.44;;;3.96;nan
6349;BME280;3207;42.648;23.406;2023-03-04T05:53:04;100222.91;;;3.92;nan
6349;BME280;3207;42.648;23.406;2023-03-04T05:55:31;100225.78;;;3.84;nan
6349;BME280;3207;42.648;23.406;2023-03-04T05:57:58;100231.56;;;3.91;nan
6349;BME280;3207;42.648;23.406;2023-03-04T06:00:25;100229.16;;;3.86;nan
6349;BME280;3207;42.648;23.406;2023-03-04T06:02:52;100177.78;;;3.58;nan
6349;BME280;3207;42.648;23.406;2023-03-04T06:05:20;100234.28;;;3.88;nan
6349;BME280;3207;42.648;23.406;2023-03-04T06:07:47;100238.03;;;4.01;nan
6349;BME280;3207;42.648;23.406;2023-03-04T06:10:17;100244.63;;;4.08;nan
6349;BME280;3207;42.648;23.406;2023-03-04T06:12:44;100246.19;;;4.12;nan
6349;BME280;3207;42.648;23.406;2023-03-04T06:15:11;100240.16;;;4.12;nan
6349;BME280;3207;42.648;23.406;2023-03-04T06:17:39;100253.84;;;4.14;nan
6349;BME280;3207;42.648;23.406;2023-03-04T06:20:07;100252.66;;;4.22;nan
6349;BME280;3207;42.648;23.406;2023-03-04T06:22:34;100241.75;;;4.14;nan
6349;BME280;3207;42.648;23.406;2023-03-04T06:25:01;100263.84;;;4.23;nan
6349;BME280;3207;42.648;23.406;2023-03-04T06:27:30;100254.41;;;4.01;nan
6349;BME280;3207;42.648;23.406;2023-03-04T06:29:57;100260.53;;;3.99;nan
6349;BME280;3207;42.648;23.406;2023-03-04T06:32:24;100256.44;;;3.93;nan
6349;BME280;3207;42.648;23.406;2023-03-04T06:34:51;100260.97;;;3.88;nan
6349;BME280;3207;42.648;23.406;2023-03-04T06:37:18;100204.94;;;3.68;nan
6349;BME280;3207;42.648;23.406;2023-03-04T06:39:44;100245.41;;;3.90;nan
6349;BME280;3207;42.648;23.406;2023-03-04T06:42:11;100252.50;;;3.85;nan
6349;BME280;3207;42.648;23.406;2023-03-04T06:44:40;100258.56;;;4.04;nan
6349;BME280;3207;42.648;23.406;2023-03-04T06:47:06;100260.59;;;4.18;nan
6349;BME280;3207;42.648;23.406;2023-03-04T06:49:33;100261.31;;;4.21;nan
6349;BME280;3207;42.648;23.406;2023-03-04T06:52:00;100267.91;;;4.28;nan
6349;BME280;3207;42.648;23.406;2023-03-04T06:54:28;100267.50;;;4.37;nan
6349;BME280;3207;42.648;23.406;2023-03-04T06:56:55;100265.28;;;4.49;nan
6349;BME280;3207;42.648;23.406;2023-03-04T06:59:21;100260.22;;;4.46;nan
6349;BME280;3207;42.648;23.406;2023-03-04T07:01:50;100272.53;;;4.61;nan
6349;BME280;3207;42.648;23.406;2023-03-04T07:04:16;100275.88;;;4.63;nan
6349;BME280;3207;42.648;23.406;2023-03-04T07:06:43;100271.50;;;4.65;nan
6349;BME280;3207;42.648;23.406;2023-03-04T07:09:10;100271.16;;;4.72;nan
6349;BME280;3207;42.648;23.406;2023-03-04T07:11:37;100267.72;;;4.72;nan
6349;BME280;3207;42.648;23.406;2023-03-04T07:14:04;100270.16;;;4.75;nan
6349;BME280;3207;42.648;23.406;2023-03-04T07:16:31;100267.94;;;4.86;nan
6349;BME280;3207;42.648;23.406;2023-03-04T07:18:59;100271.34;;;4.68;nan
6349;BME280;3207;42.648;23.406;2023-03-04T07:21:26;100271.56;;;4.82;nan
6349;BME280;3207;42.648;23.406;2023-03-04T07:23:53;100275.28;;;4.76;nan
6349;BME280;3207;42.648;23.406;2023-03-04T07:26:20;100284.38;;;4.85;nan
6349;BME280;3207;42.648;23.406;2023-03-04T07:28:47;100277.41;;;4.87;nan
6349;BME280;3207;42.648;23.406;2023-03-04T07:31:20;100278.66;;;4.97;nan
6349;BME280;3207;42.648;23.406;2023-03-04T07:33:47;100276.06;;;4.97;nan
6349;BME280;3207;42.648;23.406;2023-03-04T07:36:16;100284.41;;;5.04;nan
6349;BME280;3207;42.648;23.406;2023-03-04T07:38:44;100283.56;;;5.03;nan
6349;BME280;3207;42.648;23.406;2023-03-04T07:41:11;100279.41;;;4.99;nan
6349;BME280;3207;42.648;23.406;2023-03-04T07:43:38;100284.47;;;5.02;nan
6349;BME280;3207;42.648;23.406;2023-03-04T07:46:05;100273.00;;;5.08;nan
6349;BME280;3207;42.648;23.406;2023-03-04T07:48:32;100276.47;;;5.26;nan
6349;BME280;3207;42.648;23.406;2023-03-04T07:51:07;100275.91;;;5.38;nan
6349;BME280;3207;42.648;23.406;2023-03-04T07:53:37;100282.53;;;5.43;nan
6349;BME280;3207;42.648;23.406;2023-03-04T07:56:06;100280.31;;;5.36;nan
6349;BME280;3207;42.648;23.406;2023-03-04T07:58:33;100288.88;;;5.38;nan
6349;BME280;3207;42.648;23.406;2023-03-04T08:01:00;100281.69;;;5.43;nan
6349;BME280;3207;42.648;23.406;2023-03-04T08:03:27;100284.94;;;5.48;nan
6349;BME280;3207;42.648;23.406;2023-03-04T08:05:55;100292.13;;;5.60;nan
6349;BME280;3207;42.648;23.406;2023-03-04T08:08:21;100287.88;;;5.76;nan
6349;BME280;3207;42.648;23.406;2023-03-04T08:10:50;100284.88;;;5.67;nan
6349;BME280;3207;42.648;23.406;2023-03-04T08:13:16;100279.16;;;5.60;nan
6349;BME280;3207;42.648;23.406;2023-03-04T08:15:43;100278.25;;;5.61;nan
6349;BME280;3207;42.648;23.406;2023-03-04T08:18:10;100284.34;;;5.60;nan
6349;BME280;3207;42.648;23.406;2023-03-04T08:20:40;100284.81;;;5.85;nan
6349;BME280;3207;42.648;23.406;2023-03-04T08:23:07;100279.06;;;5.98;nan
6349;BME280;3207;42.648;23.406;2023-03-04T08:25:33;100275.88;;;6.10;nan
6349;BME280;3207;42.648;23.406;2023-03-04T08:28:02;100256.41;;;6.01;nan
6349;BME280;3207;42.648;23.406;2023-03-04T08:30:29;100268.94;;;6.10;nan
6349;BME280;3207;42.648;23.406;2023-03-04T08:32:55;100267.91;;;6.30;nan
6349;BME280;3207;42.648;23.406;2023-03-04T08:35:22;100268.66;;;6.49;nan
6349;BME280;3207;42.648;23.406;2023-03-04T08:37:49;100271.13;;;6.68;nan
6349;BME280;3207;42.648;23.406;2023-03-04T08:40:16;100250.72;;;6.78;nan
6349;BME280;3207;42.648;23.406;2023-03-04T08:42:43;100265.25;;;6.97;nan
6349;BME280;3207;42.648;23.406;2023-03-04T08:45:11;100254.69;;;7.16;nan
6349;BME280;3207;42.648;23.406;2023-03-04T08:47:38;100252.25;;;7.13;nan
6349;BME280;3207;42.648;23.406;2023-03-04T08:50:06;100249.91;;;7.24;nan
6349;BME280;3207;42.648;23.406;2023-03-04T08:52:33;100239.66;;;7.37;nan
6349;BME280;3207;42.648;23.406;2023-03-04T08:55:00;100247.66;;;7.64;nan
6349;BME280;3207;42.648;23.406;2023-03-04T08:57:27;100250.78;;;7.70;nan
6349;BME280;3207;42.648;23.406;2023-03-04T08:59:53;100250.50;;;7.75;nan
6349;BME280;3207;42.648;23.406;2023-03-04T09:02:21;100247.94;;;7.89;nan
6349;BME280;3207;42.648;23.406;2023-03-04T09:04:48;100251.75;;;8.14;nan
6349;BME280;3207;42.648;23.406;2023-03-04T09:07:15;100246.75;;;8.39;nan
6349;BME280;3207;42.648;23.406;2023-03-04T09:09:42;100236.75;;;8.47;nan
6349;BME280;3207;42.648;23.406;2023-03-04T09:12:09;100247.81;;;8.65;nan
6349;BME280;3207;42.648;23.406;2023-03-04T09:14:36;100237.44;;;8.92;nan
6349;BME280;3207;42.648;23.406;2023-03-04T09:17:04;100243.94;;;9.13;nan
6349;BME280;3207;42.648;23.406;2023-03-04T09:19:33;100245.41;;;9.31;nan
6349;BME280;3207;42.648;23.406;2023-03-04T09:21:59;100240.22;;;9.71;nan
6349;BME280;3207;42.648;23.406;2023-03-04T09:24:26;100237.47;;;10.12;nan
6349;BME280;3207;42.648;23.406;2023-03-04T09:26:53;100243.06;;;10.33;nan
6349;BME280;3207;42.648;23.406;2023-03-04T09:29:21;100238.22;;;10.52;nan
6349;BME280;3207;42.648;23.406;2023-03-04T09:31:49;100244.28;;;10.90;nan
6349;BME280;3207;42.648;23.406;2023-03-04T09:34:16;100234.84;;;11.96;nan
6349;BME280;3207;42.648;23.406;2023-03-04T09:36:53;100242.16;;;13.37;nan
6349;BME280;3207;42.648;23.406;2023-03-04T09:39:19;100240.41;;;13.90;nan
6349;BME280;3207;42.648;23.406;2023-03-04T09:41:48;100241.91;;;14.25;nan
6349;BME280;3207;42.648;23.406;2023-03-04T09:44:26;100243.41;;;14.69;nan
6349;BME280;3207;42.648;23.406;2023-03-04T09:46:55;100242.06;;;15.15;nan
6349;BME280;3207;42.648;23.406;2023-03-04T09:49:23;100241.19;;;15.73;nan
6349;BME280;3207;42.648;23.406;2023-03-04T09:51:59;100236.19;;;15.61;nan
6349;BME280;3207;42.648;23.406;2023-03-04T09:54:51;100235.00;;;16.21;nan
6349;BME280;3207;42.648;23.406;2023-03-04T09:57:26;100228.59;;;18.06;nan
6349;BME280;3207;42.648;23.406;2023-03-04T10:00:03;100242.31;;;19.29;nan
6349;BME280;3207;42.648;23.406;2023-03-04T10:02:43;100228.84;;;20.21;nan
6349;BME280;3207;42.648;23.406;2023-03-04T10:05:14;100234.13;;;20.93;nan
6349;BME280;3207;42.648;23.406;2023-03-04T10:07:46;100223.19;;;22.03;nan
6349;BME280;3207;42.648;23.406;2023-03-04T10:10:18;100239.75;;;22.43;nan
6349;BME280;3207;42.648;23.406;2023-03-04T10:12:48;100238.09;;;23.00;nan
6349;BME280;3207;42.648;23.406;2023-03-04T10:15:22;100235.63;;;22.70;nan
6349;BME280;3207;42.648;23.406;2023-03-04T10:18:02;100234.09;;;21.63;nan
6349;BME280;3207;42.648;23.406;2023-03-04T10:20:40;100222.00;;;21.98;nan
6349;BME280;3207;42.648;23.406;2023-03-04T10:23:17;100224.31;;;22.38;nan
6349;BME280;3207;42.648;23.406;2023-03-04T10:25:44;100217.34;;;22.81;nan
6349;BME280;3207;42.648;23.406;2023-03-04T10:28:18;100211.53;;;23.07;nan
6349;BME280;3207;42.648;23.406;2023-03-04T10:30:49;100218.91;;;25.02;nan
6349;BME280;3207;42.648;23.406;2023-03-04T10:33:20;100213.75;;;26.40;nan
6349;BME280;3207;42.648;23.406;2023-03-04T10:35:51;100219.34;;;28.29;nan
6349;BME280;3207;42.648;23.406;2023-03-04T10:38:21;100205.09;;;30.38;nan
6349;BME280;3207;42.648;23.406;2023-03-04T10:40:48;100211.94;;;31.77;nan
6349;BME280;3207;42.648;23.406;2023-03-04T10:43:16;100199.94;;;31.28;nan
6349;BME280;3207;42.648;23.406;2023-03-04T10:45:44;100197.38;;;32.33;nan
6349;BME280;3207;42.648;23.406;2023-03-04T10:48:19;100205.59;;;33.85;nan
6349;BME280;3207;42.648;23.406;2023-03-04T10:50:46;100192.50;;;35.33;nan
6349;BME280;3207;42.648;23.406;2023-03-04T10:53:32;100195.53;;;35.82;nan
6349;BME280;3207;42.648;23.406;2023-03-04T10:56:03;100192.28;;;36.01;nan
6349;BME280;3207;42.648;23.406;2023-03-04T10:58:33;100189.00;;;36.93;nan
6349;BME280;3207;42.648;23.406;2023-03-04T11:01:02;100183.09;;;36.66;nan
6349;BME280;3207;42.648;23.406;2023-03-04T11:03:33;100190.22;;;37.60;nan
6349;BME280;3207;42.648;23.406;2023-03-04T11:06:11;100180.81;;;38.29;nan
6349;BME280;3207;42.648;23.406;2023-03-04T11:08:42;100181.88;;;39.00;nan
6349;BME280;3207;42.648;23.406;2023-03-04T11:11:29;100177.72;;;39.21;nan
6349;BME280;3207;42.648;23.406;2023-03-04T11:14:00;100167.84;;;39.06;nan
6349;BME280;3207;42.648;23.406;2023-03-04T11:16:30;100161.22;;;38.70;nan
6349;BME280;3207;42.648;23.406;2023-03-04T11:19:01;100158.84;;;38.63;nan
6349;BME280;3207;42.648;23.406;2023-03-04T11:21:35;100158.69;;;38.07;nan
6349;BME280;3207;42.648;23.406;2023-03-04T11:24:11;100146.88;;;38.59;nan
6349;BME280;3207;42.648;23.406;2023-03-04T11:26:40;100150.25;;;38.27;nan
6349;BME280;3207;42.648;23.406;2023-03-04T11:29:13;100144.75;;;39.12;nan
6349;BME280;3207;42.648;23.406;2023-03-04T11:31:47;100140.09;;;39.64;nan
6349;BME280;3207;42.648;23.406;2023-03-04T11:34:19;100141.09;;;40.01;nan
6349;BME280;3207;42.648;23.406;2023-03-04T11:36:53;100137.72;;;40.58;nan
6349;BME280;3207;42.648;23.406;2023-03-04T11:39:29;100129.19;;;41.10;nan
6349;BME280;3207;42.648;23.406;2023-03-04T11:42:03;100121.78;;;41.10;nan
6349;BME280;3207;42.648;23.406;2023-03-04T11:44:30;100115.16;;;40.89;nan
6349;BME280;3207;42.648;23.406;2023-03-04T11:47:09;100119.00;;;40.88;nan
6349;BME280;3207;42.648;23.406;2023-03-04T11:49:56;100120.81;;;40.02;nan
6349;BME280;3207;42.648;23.406;2023-03-04T11:55:28;100099.81;;;36.50;nan
6349;BME280;3207;42.648;23.406;2023-03-04T11:58:15;100091.00;;;35.93;nan
6349;BME280;3207;42.648;23.406;2023-03-04T12:00:49;100083.69;;;35.08;nan
6349;BME280;3207;42.648;23.406;2023-03-04T12:03:38;100077.59;;;34.50;nan
6349;BME280;3207;42.648;23.406;2023-03-04T12:06:11;100069.75;;;34.01;nan
6349;BME280;3207;42.648;23.406;2023-03-04T12:08:53;100054.56;;;32.19;nan
6349;BME280;3207;42.648;23.406;2023-03-04T12:11:35;100059.78;;;30.86;nan
6349;BME280;3207;42.648;23.406;2023-03-04T12:14:29;100055.91;;;29.91;nan
6349;BME280;3207;42.648;23.406;2023-03-04T12:17:24;100058.97;;;27.23;nan
6349;BME280;3207;42.648;23.406;2023-03-04T12:20:06;100044.56;;;25.91;nan
6349;BME280;3207;42.648;23.406;2023-03-04T12:22:43;100040.31;;;24.02;nan
6349;BME280;3207;42.648;23.406;2023-03-04T12:25:25;100034.47;;;23.29;nan
6349;BME280;3207;42.648;23.406;2023-03-04T12:28:02;100030.34;;;22.48;nan
6349;BME280;3207;42.648;23.406;2023-03-04T12:30:48;100022.72;;;21.80;nan
6349;BME280;3207;42.648;23.406;2023-03-04T12:33:29;100008.75;;;21.48;nan
6349;BME280;3207;42.648;23.406;2023-03-04T12:36:08;100016.09;;;20.86;nan
6349;BME280;3207;42.648;23.406;2023-03-04T12:38:52;100009.31;;;20.98;nan
6349;BME280;3207;42.648;23.406;2023-03-04T12:41:32;99997.06;;;20.52;nan
6349;BME280;3207;42.648;23.406;2023-03-04T12:44:11;100000.59;;;20.44;nan
6349;BME280;3207;42.648;23.406;2023-03-04T12:47:01;99985.34;;;19.99;nan
6349;BME280;3207;42.648;23.406;2023-03-04T12:49:53;99993.94;;;19.62;nan
6349;BME280;3207;42.648;23.406;2023-03-04T12:52:31;99990.78;;;19.66;nan
6349;BME280;3207;42.648;23.406;2023-03-04T12:55:07;99988.50;;;19.55;nan
6349;BME280;3207;42.648;23.406;2023-03-04T12:57:35;99982.50;;;19.45;nan
6349;BME280;3207;42.648;23.406;2023-03-04T13:00:19;99962.97;;;19.54;nan
6349;BME280;3207;42.648;23.406;2023-03-04T13:02:55;99971.56;;;19.64;nan
6349;BME280;3207;42.648;23.406;2023-03-04T13:05:51;99972.56;;;19.39;nan
6349;BME280;3207;42.648;23.406;2023-03-04T13:08:33;99966.97;;;19.26;nan
6349;BME280;3207;42.648;23.406;2023-03-04T13:11:39;99961.66;;;19.18;nan
6349;BME280;3207;42.648;23.406;2023-03-04T13:14:21;99963.66;;;19.24;nan
6349;BME280;3207;42.648;23.406;2023-03-04T13:16:50;99954.25;;;19.05;nan
6349;BME280;3207;42.648;23.406;2023-03-04T13:19:47;99949.28;;;19.02;nan
6349;BME280;3207;42.648;23.406;2023-03-04T13:22:44;99931.56;;;19.02;nan
6349;BME280;3207;42.648;23.406;2023-03-04T13:25:35;99940.81;;;19.23;nan
6349;BME280;3207;42.648;23.406;2023-03-04T13:28:20;99934.53;;;18.99;nan
6349;BME280;3207;42.648;23.406;2023-03-04T13:31:13;99929.91;;;18.93;nan
6349;BME280;3207;42.648;23.406;2023-03-04T13:33:47;99922.78;;;18.86;nan
6349;BME280;3207;42.648;23.406;2023-03-04T13:39:28;99931.56;;;18.94;nan
6349;BME280;3207;42.648;23.406;2023-03-04T13:41:56;99926.78;;;18.82;nan
6349;BME280;3207;42.648;23.406;2023-03-04T13:47:44;99915.03;;;18.68;nan
6349;BME280;3207;42.648;23.406;2023-03-04T13:50:38;99906.41;;;18.58;nan
6349;BME280;3207;42.648;23.406;2023-03-04T13:53:30;99900.47;;;18.80;nan
6349;BME280;3207;42.648;23.406;2023-03-04T13:56:09;99880.25;;;18.79;nan